Time;durP1;ratioP1;P1;durP2;ratioP2;P2;SDS_P1;SDS_P2;PMS_P1;PMS_P2;Temp;Humidity;BMP_temperature;BMP_pressure;BME280_temperature;BME280_humidity;BME280_pressure;Samples;Min_cycle;Max_cycle;Signal;HPM_P1;HPM_P2
2021/04/05 00:00:12;;;;;;;11.43;6.70;;;;;;;8.82;42.57;96424.28;5032468;28;20433;-69
2021/04/05 00:02:39;;;;;;;11.40;6.80;;;;;;;8.80;42.24;96421.81;5030955;28;20845;-70
2021/04/05 00:05:10;;;;;;;10.70;6.20;;;;;;;8.78;42.46;96425.59;5031680;28;20573;-69
2021/04/05 00:07:35;;;;;;;11.50;6.60;;;;;;;8.85;42.10;96418.72;5031747;28;20423;-70
2021/04/05 00:10:14;;;;;;;13.73;6.97;;;;;;;8.78;42.97;96428.19;5030990;28;20452;-69
2021/04/05 00:12:40;;;;;;;10.20;6.30;;;;;;;8.84;42.13;96424.94;5030734;28;20608;-68
2021/04/05 00:15:08;;;;;;;9.40;6.03;;;;;;;8.65;42.30;96418.19;5030641;28;20497;-68
2021/04/05 00:17:35;;;;;;;9.87;6.43;;;;;;;8.61;42.59;96412.47;5022300;28;20183;-68
2021/04/05 00:20:01;;;;;;;9.30;6.00;;;;;;;8.64;42.70;96416.56;5030253;28;20419;-69
2021/04/05 00:22:26;;;;;;;11.00;6.10;;;;;;;8.52;43.75;96403.00;5030573;28;20423;-69
2021/04/05 00:24:52;;;;;;;9.07;5.17;;;;;;;8.84;42.47;96402.25;5029713;28;20471;-68
2021/04/05 00:27:18;;;;;;;13.33;5.90;;;;;;;8.68;43.28;96405.66;5025920;28;20180;-69
2021/04/05 00:29:43;;;;;;;11.90;5.93;;;;;;;8.78;42.99;96400.25;5027820;28;20607;-70
2021/04/05 00:32:09;;;;;;;11.10;6.17;;;;;;;8.24;43.82;96397.97;5014410;28;20194;-69
2021/04/05 00:34:35;;;;;;;11.17;6.13;;;;;;;8.14;44.20;96393.69;5031063;28;20267;-70
2021/04/05 00:37:01;;;;;;;14.33;6.40;;;;;;;7.99;44.30;96392.63;5030340;28;20523;-69
2021/04/05 00:39:26;;;;;;;15.27;5.87;;;;;;;7.86;44.71;96400.91;5030982;28;20430;-70
2021/04/05 00:41:52;;;;;;;9.43;5.83;;;;;;;7.94;44.84;96403.53;5027976;28;20683;-67
2021/04/05 00:44:18;;;;;;;11.03;6.00;;;;;;;7.88;44.68;96401.53;5030935;28;20184;-68
2021/04/05 00:46:44;;;;;;;11.50;6.43;;;;;;;7.77;45.20;96410.47;5024723;28;20564;-70
2021/04/05 00:49:09;;;;;;;14.97;6.67;;;;;;;7.72;45.43;96407.50;5030683;28;20184;-69
2021/04/05 00:51:35;;;;;;;11.30;6.70;;;;;;;7.53;45.71;96409.34;5030360;28;20184;-69
2021/04/05 00:54:01;;;;;;;16.10;7.30;;;;;;;7.46;45.96;96402.28;5030325;28;20546;-69
2021/04/05 00:56:27;;;;;;;9.70;7.13;;;;;;;7.53;46.09;96385.88;5030183;28;20199;-69
2021/04/05 00:58:53;;;;;;;9.93;6.40;;;;;;;7.15;47.15;96384.44;5030833;28;20304;-68
2021/04/05 01:01:26;;;;;;;13.13;6.47;;;;;;;7.36;46.58;96382.34;5024189;28;20414;-69
2021/04/05 01:03:53;;;;;;;9.43;5.63;;;;;;;7.43;46.36;96377.34;5030853;28;20513;-69
2021/04/05 01:06:23;;;;;;;13.53;6.53;;;;;;;7.49;46.57;96381.91;5030037;28;20519;-68
2021/04/05 01:08:49;;;;;;;14.43;6.40;;;;;;;7.81;45.47;96357.00;5029747;28;20426;-70
2021/04/05 01:11:17;;;;;;;14.13;6.80;;;;;;;7.28;46.89;96350.97;5028784;28;20783;-69
2021/04/05 01:13:44;;;;;;;10.93;6.17;;;;;;;7.61;46.03;96340.78;5030294;28;20458;-69
2021/04/05 01:16:10;;;;;;;13.00;6.00;;;;;;;7.65;46.29;96341.28;5025081;28;20457;-69
2021/04/05 01:18:36;;;;;;;10.70;5.90;;;;;;;7.87;45.78;96339.94;5026355;28;20449;-70
2021/04/05 01:21:02;;;;;;;13.07;6.13;;;;;;;7.68;46.18;96333.94;5030261;28;20234;-69
2021/04/05 01:23:28;;;;;;;8.27;5.50;;;;;;;7.74;45.70;96337.72;5012259;28;20180;-70
2021/04/05 01:25:54;;;;;;;12.83;5.90;;;;;;;7.87;45.26;96336.47;5029886;28;20473;-68
2021/04/05 01:28:19;;;;;;;8.73;5.60;;;;;;;7.69;45.63;96332.16;5030354;28;20449;-70
2021/04/05 01:30:53;;;;;;;16.30;5.70;;;;;;;7.92;45.19;96327.22;5030050;28;20214;-69
2021/04/05 01:33:20;;;;;;;11.33;5.73;;;;;;;7.75;45.29;96331.53;5029388;28;20263;-69
2021/04/05 01:35:49;;;;;;;11.50;5.77;;;;;;;7.33;46.42;96332.28;5030191;28;20997;-68
2021/04/05 01:38:17;;;;;;;12.27;6.40;;;;;;;7.75;45.71;96328.13;5030595;28;20434;-69
2021/04/05 01:40:49;;;;;;;9.93;6.37;;;;;;;7.74;45.32;96311.66;5029356;28;20427;-69
2021/04/05 01:43:15;;;;;;;9.50;5.80;;;;;;;7.61;45.62;96308.66;5028626;28;20790;-68
2021/04/05 01:45:41;;;;;;;12.60;5.83;;;;;;;7.81;45.60;96302.22;5023640;28;20467;-69
2021/04/05 01:48:08;;;;;;;11.33;5.83;;;;;;;7.50;46.33;96304.50;5029411;28;20180;-69
2021/04/05 01:50:35;;;;;;;11.53;6.43;;;;;;;7.79;45.33;96301.56;5030130;28;20455;-70
2021/04/05 01:53:02;;;;;;;8.67;5.53;;;;;;;7.77;45.55;96297.47;5030593;28;20521;-69
2021/04/05 01:55:29;;;;;;;10.40;6.13;;;;;;;7.73;45.59;96290.94;5034506;28;20438;-70
2021/04/05 01:57:54;;;;;;;11.63;6.20;;;;;;;7.64;45.52;96295.31;5033607;28;20441;-70
2021/04/05 02:00:24;;;;;;;12.90;5.83;;;;;;;7.68;45.68;96287.00;5035481;28;20426;-71
2021/04/05 02:02:50;;;;;;;10.00;5.77;;;;;;;7.69;45.79;96277.38;5033443;28;20183;-71
2021/04/05 02:05:16;;;;;;;10.30;5.60;;;;;;;7.82;45.30;96269.94;5032534;28;20468;-70
2021/04/05 02:07:43;;;;;;;7.07;5.60;;;;;;;7.87;44.84;96276.47;5032633;28;20183;-70
2021/04/05 02:10:11;;;;;;;10.20;6.20;;;;;;;7.47;46.23;96268.34;5016435;28;20437;-70
2021/04/05 02:12:37;;;;;;;9.97;5.33;;;;;;;7.61;45.89;96259.09;5034139;28;20434;-69
2021/04/05 02:15:08;;;;;;;11.53;5.73;;;;;;;7.73;45.17;96244.81;5032051;28;20446;-69
2021/04/05 02:17:34;;;;;;;12.20;6.67;;;;;;;7.80;45.37;96242.38;5024283;28;20517;-69
2021/04/05 02:20:00;;;;;;;12.33;6.30;;;;;;;7.74;45.54;96235.19;5031609;28;20430;-69
2021/04/05 02:22:25;;;;;;;14.80;5.80;;;;;;;7.73;45.40;96236.97;5031652;28;20214;-69
2021/04/05 02:24:51;;;;;;;8.23;5.00;;;;;;;7.80;45.33;96231.94;5033163;28;20226;-70
2021/04/05 02:27:17;;;;;;;12.37;5.53;;;;;;;7.83;45.34;96227.22;5031525;28;20195;-70
2021/04/05 02:29:42;;;;;;;9.70;6.27;;;;;;;7.77;45.71;96224.44;5032124;28;20183;-69
2021/04/05 02:32:08;;;;;;;9.13;5.73;;;;;;;7.77;45.42;96217.44;5031617;28;20195;-70
2021/04/05 02:34:34;;;;;;;7.07;5.50;;;;;;;7.71;45.77;96212.03;5031991;28;20212;-68
2021/04/05 02:36:59;;;;;;;11.50;5.80;;;;;;;7.67;45.74;96211.53;5032449;28;20192;-70
2021/04/05 02:39:25;;;;;;;14.53;6.13;;;;;;;7.62;45.89;96208.59;5033251;28;20188;-70
2021/04/05 02:41:52;;;;;;;10.43;5.83;;;;;;;7.66;45.61;96209.91;5031127;28;20272;-69
2021/04/05 02:44:18;;;;;;;10.10;5.90;;;;;;;7.59;45.92;96203.69;5031043;28;20191;-69
2021/04/05 02:46:45;;;;;;;10.77;6.17;;;;;;;7.66;46.00;96202.88;5009735;28;20450;-70
2021/04/05 02:49:13;;;;;;;10.40;5.97;;;;;;;7.69;45.90;96204.34;5031869;28;20469;-71
2021/04/05 02:51:47;;;;;;;11.10;5.80;;;;;;;7.69;45.99;96204.34;5031102;28;20521;-71
2021/04/05 02:54:13;;;;;;;13.10;6.20;;;;;;;7.62;45.87;96199.00;5016000;28;20431;-71
2021/04/05 02:56:39;;;;;;;10.63;6.10;;;;;;;7.59;45.96;96201.06;5019570;28;20443;-70
2021/04/05 02:59:06;;;;;;;13.33;6.23;;;;;;;7.36;46.44;96199.88;5031493;28;20934;-70
2021/04/05 03:01:32;;;;;;;15.27;6.20;;;;;;;7.49;46.64;96199.41;5025304;28;21086;-70
2021/04/05 03:03:59;;;;;;;11.10;6.10;;;;;;;7.50;46.26;96193.22;5021646;28;20496;-71
2021/04/05 03:06:27;;;;;;;12.63;6.90;;;;;;;7.47;46.34;96190.13;5013925;28;21047;-71
2021/04/05 03:08:53;;;;;;;10.07;5.73;;;;;;;7.52;46.26;96183.47;5012716;28;20467;-70
2021/04/05 03:11:21;;;;;;;11.43;5.50;;;;;;;7.48;46.01;96182.13;5012139;28;20842;-71
2021/04/05 03:13:47;;;;;;;7.10;5.40;;;;;;;7.43;46.56;96189.63;5011457;28;20423;-71
2021/04/05 03:16:18;;;;;;;11.37;6.33;;;;;;;7.40;46.24;96183.88;5012450;28;20451;-70
2021/04/05 03:18:44;;;;;;;12.30;6.70;;;;;;;7.31;47.15;96180.47;5011178;28;20741;-69
2021/04/05 03:21:12;;;;;;;14.00;6.20;;;;;;;7.32;47.22;96166.44;5010397;28;20430;-68
2021/04/05 03:23:39;;;;;;;12.10;6.53;;;;;;;7.35;47.49;96156.53;5010808;28;20438;-70
2021/04/05 03:26:04;;;;;;;13.23;6.60;;;;;;;7.21;48.20;96155.31;5011797;28;20471;-70
2021/04/05 03:28:30;;;;;;;13.00;6.20;;;;;;;7.31;48.12;96146.56;5012380;28;20945;-70
2021/04/05 03:31:01;;;;;;;16.87;6.60;;;;;;;7.46;47.04;96136.34;5011172;28;20188;-70
2021/04/05 03:33:51;;;;;;;15.67;6.63;;;;;;;7.20;48.27;96132.84;5011504;28;20184;-70
2021/04/05 03:36:40;;;;;;;18.40;7.37;;;;;;;7.38;47.95;96122.31;5004065;28;20531;-70
2021/04/05 03:39:06;;;;;;;12.37;6.20;;;;;;;7.50;47.33;96109.81;5009804;28;20427;-70
2021/04/05 03:41:54;;;;;;;12.33;6.53;;;;;;;7.25;47.99;96098.47;5010350;28;20856;-71
2021/04/05 03:44:28;;;;;;;12.70;6.63;;;;;;;7.50;47.58;96096.75;4984884;28;20664;-70
2021/04/05 03:47:06;;;;;;;14.50;6.10;;;;;;;7.60;46.95;96095.78;5008480;28;20783;-70
2021/04/05 03:49:36;;;;;;;13.43;6.13;;;;;;;7.36;47.94;96094.78;5010811;28;20435;-70
2021/04/05 03:52:33;;;;;;;10.63;6.10;;;;;;;7.58;47.61;96087.31;5010018;28;20468;-70
2021/04/05 03:55:00;;;;;;;13.33;6.50;;;;;;;7.87;46.70;96097.31;5009642;28;20451;-70
2021/04/05 03:57:33;;;;;;;8.77;6.10;;;;;;;7.88;46.17;96090.28;5011464;28;20903;-70
2021/04/05 04:00:07;;;;;;;14.13;6.33;;;;;;;7.56;47.17;96097.09;5008294;28;22851;-70
2021/04/05 04:02:39;;;;;;;14.67;7.00;;;;;;;7.53;47.11;96101.66;5015105;28;20589;-71
2021/04/05 04:07:37;;;;;;;12.03;6.23;;;;;;;7.65;46.56;96096.16;5011921;28;20489;-71
2021/04/05 04:10:10;;;;;;;11.17;6.17;;;;;;;7.60;46.48;96090.56;5009466;28;20439;-69
2021/04/05 04:12:36;;;;;;;9.37;5.73;;;;;;;7.27;47.41;96086.09;5010731;28;20950;-71
2021/04/05 04:15:02;;;;;;;13.43;6.33;;;;;;;7.58;46.67;96082.94;5009926;28;20484;-70
2021/04/05 04:17:32;;;;;;;11.63;6.00;;;;;;;7.48;46.74;96083.06;5009016;28;20419;-70
2021/04/05 04:19:58;;;;;;;13.77;6.93;;;;;;;7.20;47.89;96072.91;5011162;28;20466;-69
2021/04/05 04:22:24;;;;;;;14.30;6.40;;;;;;;7.46;47.30;96058.94;5009359;28;20424;-69
2021/04/05 04:24:50;;;;;;;11.30;5.67;;;;;;;7.67;46.61;96049.84;5009324;28;20497;-69
2021/04/05 04:27:15;;;;;;;10.27;5.53;;;;;;;7.55;46.90;96053.75;5009382;28;20438;-70
2021/04/05 04:29:50;;;;;;;10.63;5.90;;;;;;;7.46;47.00;96053.72;5010801;28;20176;-70
2021/04/05 04:32:16;;;;;;;8.20;5.90;;;;;;;7.64;46.47;96042.34;5007575;28;20202;-70
2021/04/05 04:34:41;;;;;;;11.13;5.53;;;;;;;7.64;46.19;96040.53;5009418;28;20534;-70
2021/04/05 04:37:07;;;;;;;8.37;5.30;;;;;;;7.63;46.68;96038.91;5011126;28;20231;-70
2021/04/05 04:39:32;;;;;;;10.00;5.60;;;;;;;7.41;47.08;96043.00;5011064;28;20256;-70
2021/04/05 04:41:58;;;;;;;11.10;6.13;;;;;;;7.41;46.71;96037.78;5009293;28;20274;-70
2021/04/05 04:44:24;;;;;;;9.87;5.30;;;;;;;7.50;46.52;96034.19;5010836;28;20212;-70
2021/04/05 04:46:49;;;;;;;9.30;5.60;;;;;;;7.58;46.53;96022.13;5010274;28;20590;-70
2021/04/05 04:49:15;;;;;;;11.80;5.50;;;;;;;7.38;46.97;96019.84;5011368;28;20181;-69
2021/04/05 04:51:41;;;;;;;10.03;6.00;;;;;;;7.42;47.16;96009.91;5009734;28;20671;-70
2021/04/05 04:54:09;;;;;;;10.10;6.30;;;;;;;7.23;47.24;96007.44;5010854;28;20197;-70
2021/04/05 04:56:35;;;;;;;11.53;6.07;;;;;;;7.21;47.70;96013.78;5009949;28;20204;-70
2021/04/05 04:59:04;;;;;;;10.60;5.77;;;;;;;7.13;47.70;96006.78;5011415;28;20431;-70
2021/04/05 05:01:30;;;;;;;10.67;5.57;;;;;;;7.13;47.82;96016.38;5009819;28;20334;-68
2021/04/05 05:04:19;;;;;;;13.30;5.70;;;;;;;7.15;47.55;96009.22;5009458;28;20479;-70
2021/04/05 05:06:46;;;;;;;6.83;5.20;;;;;;;7.25;47.26;95998.66;5010697;28;20951;-69
2021/04/05 05:09:11;;;;;;;12.73;5.70;;;;;;;7.17;47.50;95994.22;5011085;28;20491;-70
2021/04/05 05:11:37;;;;;;;14.40;5.93;;;;;;;7.38;47.57;95976.34;5009310;28;20459;-70
2021/04/05 05:14:03;;;;;;;12.80;5.50;;;;;;;7.29;47.23;95973.91;5009798;28;20751;-70
2021/04/05 05:16:30;;;;;;;8.97;5.73;;;;;;;7.35;47.16;95966.25;5013917;28;20215;-70
2021/04/05 05:19:00;;;;;;;11.60;6.03;;;;;;;7.28;47.31;95977.47;5010820;28;20262;-71
2021/04/05 05:21:45;;;;;;;8.90;5.40;;;;;;;7.30;47.43;95965.91;4989887;28;20944;-70
2021/04/05 05:24:14;;;;;;;10.27;5.77;;;;;;;7.46;47.35;95965.09;5002079;28;20439;-69
2021/04/05 05:26:41;;;;;;;14.10;6.03;;;;;;;7.29;47.56;95969.50;5010576;28;20838;-70
2021/04/05 05:29:08;;;;;;;16.20;6.70;;;;;;;7.41;47.25;95967.41;5012961;28;20438;-68
2021/04/05 05:31:36;;;;;;;10.10;6.23;;;;;;;7.32;47.90;95955.31;5012241;28;20427;-70
2021/04/05 05:34:02;;;;;;;7.80;5.83;;;;;;;7.64;46.72;95943.25;5014708;28;20518;-70
2021/04/05 05:36:28;;;;;;;10.20;5.70;;;;;;;7.27;47.94;95947.97;5014696;28;20501;-70
2021/04/05 05:38:54;;;;;;;11.73;5.43;;;;;;;7.33;47.65;95949.97;4996988;28;20788;-70
2021/04/05 05:41:40;;;;;;;13.73;5.40;;;;;;;7.04;48.75;95946.00;5013359;28;20230;-69
2021/04/05 05:44:10;;;;;;;13.43;5.57;;;;;;;7.94;46.40;95936.53;5013059;28;20450;-70
2021/04/05 05:46:51;;;;;;;12.67;5.80;;;;;;;7.73;46.82;95926.63;5013021;28;20498;-69
2021/04/05 05:49:34;;;;;;;21.00;6.00;;;;;;;7.65;46.95;95926.63;5006325;28;20949;-70
2021/04/05 05:52:09;;;;;;;10.60;5.63;;;;;;;7.65;46.92;95931.84;5013636;28;20439;-69
2021/04/05 05:54:56;;;;;;;13.90;6.03;;;;;;;7.33;47.74;95934.31;5013100;28;20445;-69
2021/04/05 05:57:48;;;;;;;9.50;5.53;;;;;;;7.36;47.71;95923.56;5006528;28;20411;-69
2021/04/05 06:00:23;;;;;;;9.70;5.10;;;;;;;7.06;48.24;95923.22;5004397;28;20434;-70
2021/04/05 06:03:05;;;;;;;11.27;5.33;;;;;;;7.88;46.38;95916.31;4993848;28;20443;-69
2021/04/05 06:05:41;;;;;;;6.93;5.30;;;;;;;7.77;46.06;95901.84;5013667;28;20471;-67
2021/04/05 06:08:18;;;;;;;11.17;5.63;;;;;;;7.83;45.95;95914.19;5014593;28;20541;-68
2021/04/05 06:11:14;;;;;;;10.93;5.43;;;;;;;7.98;45.13;95908.31;5023466;28;20512;-68
2021/04/05 06:13:53;;;;;;;9.13;5.43;;;;;;;7.77;45.54;95906.22;5032794;28;20536;-69
2021/04/05 06:16:46;;;;;;;10.60;5.90;;;;;;;8.21;44.35;95910.19;5032440;28;20595;-71
2021/04/05 06:19:31;;;;;;;10.87;5.43;;;;;;;8.48;44.25;95908.13;5027756;28;20422;-70
2021/04/05 06:22:07;;;;;;;9.10;5.03;;;;;;;8.80;43.69;95908.97;5032870;28;20418;-70
2021/04/05 06:24:45;;;;;;;10.37;5.50;;;;;;;8.69;43.55;95902.31;5031624;28;20823;-70
2021/04/05 06:27:14;;;;;;;19.50;5.03;;;;;;;8.94;42.86;95889.94;5015496;28;20472;-70
2021/04/05 06:29:46;;;;;;;6.70;4.77;;;;;;;9.05;42.36;95891.31;5031973;28;20465;-68
2021/04/05 06:32:46;;;;;;;10.70;5.00;;;;;;;9.18;42.55;95880.28;5017224;28;20441;-70
2021/04/05 06:35:24;;;;;;;11.43;5.13;;;;;;;9.25;41.71;95875.97;5017841;28;20480;-69
2021/04/05 06:37:56;;;;;;;7.93;4.87;;;;;;;9.53;40.85;95878.00;5032397;28;20430;-69
2021/04/05 06:40:23;;;;;;;13.00;5.33;;;;;;;9.53;40.63;95878.00;5030640;28;20430;-69
2021/04/05 06:43:26;;;;;;;11.20;5.57;;;;;;;9.49;40.81;95880.19;5031498;28;20423;-69
2021/04/05 06:46:04;;;;;;;9.57;5.07;;;;;;;9.45;41.13;95880.72;5032399;28;20992;-69
2021/04/05 06:48:51;;;;;;;10.40;4.70;;;;;;;9.45;41.83;95868.44;5031848;28;20419;-69
2021/04/05 06:51:31;;;;;;;7.57;5.10;;;;;;;9.44;41.17;95861.56;5019003;28;20464;-69
2021/04/05 06:54:34;;;;;;;9.90;4.97;;;;;;;9.61;41.21;95854.38;5031445;28;20426;-69
2021/04/05 06:57:03;;;;;;;11.67;5.67;;;;;;;9.24;42.38;95850.00;5032734;28;20418;-69
2021/04/05 06:59:39;;;;;;;9.40;4.60;;;;;;;9.94;40.92;95847.97;5031928;28;20434;-70
2021/04/05 07:02:20;;;;;;;8.97;5.00;;;;;;;9.86;41.01;95856.72;5031540;28;20425;-70
2021/04/05 07:05:33;;;;;;;11.57;5.47;;;;;;;9.44;41.57;95863.41;5032078;28;20465;-70
2021/04/05 07:08:22;;;;;;;9.20;5.33;;;;;;;9.28;42.25;95859.94;4989142;28;20524;-69
2021/04/05 07:11:05;;;;;;;8.23;5.20;;;;;;;9.84;41.17;95866.56;4968853;28;21107;-68
2021/04/05 07:13:44;;;;;;;15.27;6.10;;;;;;;9.38;42.47;95860.50;4973667;28;20428;-69
2021/04/05 07:16:28;;;;;;;10.27;5.13;;;;;;;9.11;43.13;95858.44;4971473;28;20536;-69
2021/04/05 07:19:05;;;;;;;13.73;5.90;;;;;;;9.78;41.70;95854.22;4967122;28;20432;-69
2021/04/05 07:21:39;;;;;;;8.73;5.40;;;;;;;10.19;40.35;95861.59;4989144;28;20459;-70
2021/04/05 07:24:17;;;;;;;9.83;5.73;;;;;;;10.23;40.75;95857.59;4974178;28;20515;-69
2021/04/05 07:26:43;;;;;;;11.57;5.63;;;;;;;10.15;40.78;95857.72;4990343;28;20471;-70
2021/04/05 07:29:24;;;;;;;10.00;5.87;;;;;;;10.29;40.72;95867.38;4971312;28;21025;-71
2021/04/05 07:32:09;;;;;;;10.30;5.30;;;;;;;10.21;40.46;95850.94;4971129;28;20435;-70
2021/04/05 07:34:44;;;;;;;10.30;5.50;;;;;;;10.18;40.30;95859.97;4990297;28;20421;-69
2021/04/05 07:37:20;;;;;;;12.93;5.63;;;;;;;10.24;40.73;95847.97;4982000;28;20416;-70
2021/04/05 07:39:49;;;;;;;9.73;5.40;;;;;;;10.80;39.70;95844.75;5028272;28;20427;-70
2021/04/05 07:42:28;;;;;;;13.63;5.83;;;;;;;10.64;40.06;95839.75;5030255;28;20434;-69
2021/04/05 07:45:01;;;;;;;12.00;5.50;;;;;;;10.69;39.89;95840.81;5031574;28;20579;-69
2021/04/05 07:48:05;;;;;;;10.67;5.10;;;;;;;10.86;39.23;95836.13;5015970;28;20431;-70
2021/04/05 07:50:47;;;;;;;10.27;5.80;;;;;;;11.04;39.44;95840.13;5021261;28;20414;-70
2021/04/05 07:53:16;;;;;;;16.40;6.10;;;;;;;11.47;38.89;95841.88;5014671;28;20469;-71
2021/04/05 07:55:41;;;;;;;11.50;5.97;;;;;;;11.02;39.73;95852.63;5023760;28;20435;-69
2021/04/05 07:58:16;;;;;;;8.20;5.30;;;;;;;11.30;39.34;95828.25;5028149;28;20513;-69
2021/04/05 08:00:44;;;;;;;12.43;5.10;;;;;;;11.30;39.51;95833.50;5031850;28;20186;-68
2021/04/05 08:03:33;;;;;;;11.93;5.60;;;;;;;12.17;37.92;95827.97;5014826;28;20429;-69
2021/04/05 08:06:04;;;;;;;8.50;4.97;;;;;;;11.51;39.40;95822.94;5029788;28;20561;-71
2021/04/05 08:08:45;;;;;;;10.93;5.60;;;;;;;11.89;38.85;95818.31;5030205;28;20441;-70
2021/04/05 08:11:34;;;;;;;10.27;5.33;;;;;;;12.50;37.95;95814.94;5030960;28;20430;-69
2021/04/05 08:14:10;;;;;;;10.83;5.80;;;;;;;12.46;38.28;95810.28;5023453;28;20423;-70
2021/04/05 08:16:57;;;;;;;10.73;5.47;;;;;;;12.14;38.78;95806.34;5030886;28;20472;-69
2021/04/05 08:19:24;;;;;;;12.07;6.10;;;;;;;12.49;38.04;95807.25;5022716;28;20450;-69
2021/04/05 08:22:22;;;;;;;9.47;5.40;;;;;;;11.96;38.71;95819.16;5030423;28;20476;-69
2021/04/05 08:25:40;;;;;;;8.00;4.90;;;;;;;12.79;37.15;95812.16;5021455;28;20458;-70
2021/04/05 08:28:15;;;;;;;29.17;5.47;;;;;;;12.36;37.98;95813.28;4975043;28;20440;-70
2021/04/05 08:30:54;;;;;;;13.93;5.03;;;;;;;12.74;36.55;95808.31;5029492;28;20436;-69
2021/04/05 08:33:28;;;;;;;11.47;4.63;;;;;;;13.16;35.95;95802.06;5016273;28;20457;-69
2021/04/05 08:36:26;;;;;;;11.77;4.90;;;;;;;12.93;34.86;95807.72;5029473;28;20976;-69
2021/04/05 08:39:07;;;;;;;16.60;6.23;;;;;;;12.63;36.61;95811.53;4956376;28;20436;-69
2021/04/05 08:42:03;;;;;;;13.43;4.90;;;;;;;12.93;36.18;95811.16;4970261;28;20789;-71
2021/04/05 08:44:38;;;;;;;11.37;4.60;;;;;;;13.31;34.32;95802.69;4968623;28;20919;-69
2021/04/05 08:47:06;;;;;;;11.70;4.07;;;;;;;12.86;35.55;95807.72;4973126;28;20994;-69
2021/04/05 08:49:33;;;;;;;15.83;4.50;;;;;;;12.50;36.15;95803.59;4988593;28;20428;-70
2021/04/05 08:52:03;;;;;;;7.80;4.10;;;;;;;12.02;35.82;95801.84;4972164;28;20958;-71
2021/04/05 08:54:30;;;;;;;9.77;4.00;;;;;;;11.80;35.88;95807.16;4987015;28;20432;-69
2021/04/05 08:57:02;;;;;;;12.00;3.80;;;;;;;12.37;34.91;95815.69;4988181;28;20424;-69
2021/04/05 08:59:28;;;;;;;12.73;3.80;;;;;;;12.30;34.72;95812.25;4985945;28;20424;-70
2021/04/05 09:02:19;;;;;;;11.23;3.70;;;;;;;12.36;34.46;95815.91;4986379;28;20424;-70
2021/04/05 09:04:46;;;;;;;8.97;3.67;;;;;;;12.04;34.01;95813.78;4972345;28;20192;-70
2021/04/05 09:07:21;;;;;;;6.80;3.73;;;;;;;11.67;35.35;95811.31;4988861;28;20428;-70
2021/04/05 09:09:52;;;;;;;9.27;3.60;;;;;;;12.02;35.02;95802.66;4971863;28;20434;-70
2021/04/05 09:12:18;;;;;;;16.10;4.23;;;;;;;12.08;34.81;95801.88;4971832;28;20424;-69
2021/04/05 09:15:06;;;;;;;11.90;4.47;;;;;;;12.28;35.03;95798.50;4999232;28;20493;-69
2021/04/05 09:17:45;;;;;;;6.40;3.80;;;;;;;12.39;34.69;95789.25;5026312;28;20938;-69
2021/04/05 09:20:48;;;;;;;9.53;3.93;;;;;;;12.33;34.80;95767.22;5014846;28;20418;-70
2021/04/05 09:23:29;;;;;;;9.90;3.60;;;;;;;11.89;35.53;95771.06;5014982;28;20437;-70
2021/04/05 09:26:25;;;;;;;14.47;4.40;;;;;;;11.70;35.73;95786.53;5029867;28;20880;-70
2021/04/05 09:29:28;;;;;;;22.63;4.63;;;;;;;12.08;34.40;95775.63;5030175;28;20457;-68
2021/04/05 09:32:00;;;;;;;8.80;4.23;;;;;;;12.00;34.23;95773.16;5028967;28;20823;-70
2021/04/05 09:35:03;;;;;;;15.57;4.00;;;;;;;12.21;34.38;95766.16;5013176;28;20423;-70
2021/04/05 09:38:11;;;;;;;8.00;3.00;;;;;;;12.11;34.43;95756.03;5019388;28;21036;-69
2021/04/05 09:40:58;;;;;;;9.60;3.53;;;;;;;12.20;33.76;95756.66;4987715;28;20440;-71
2021/04/05 09:43:57;;;;;;;14.10;3.77;;;;;;;12.74;33.10;95741.78;4963664;28;20428;-70
2021/04/05 09:46:56;;;;;;;11.33;3.63;;;;;;;12.41;33.61;95748.63;4988682;28;20468;-70
2021/04/05 09:49:59;;;;;;;10.37;3.60;;;;;;;12.71;32.83;95737.75;4989004;28;20420;-70
2021/04/05 09:53:13;;;;;;;9.77;3.97;;;;;;;13.09;31.74;95738.16;4985952;28;20574;-69
2021/04/05 09:55:43;;;;;;;9.73;4.17;;;;;;;13.01;31.81;95731.28;4937448;28;20439;-68
2021/04/05 09:58:17;;;;;;;10.67;3.83;;;;;;;12.73;31.59;95737.53;4989042;28;20430;-69
2021/04/05 10:01:07;;;;;;;9.07;3.53;;;;;;;12.11;31.93;95727.94;4972461;28;20986;-70
2021/04/05 10:03:43;;;;;;;9.40;4.40;;;;;;;12.14;32.42;95729.38;4966654;28;20432;-70
2021/04/05 10:06:11;;;;;;;11.07;3.50;;;;;;;12.43;32.61;95727.41;4972768;28;20474;-70
2021/04/05 10:08:37;;;;;;;5.13;3.17;;;;;;;11.77;32.43;95703.38;4972028;28;20424;-69
2021/04/05 10:11:04;;;;;;;8.57;3.50;;;;;;;11.71;32.56;95701.56;4988207;28;20455;-71
2021/04/05 10:13:32;;;;;;;11.73;4.13;;;;;;;12.01;32.23;95695.22;4970805;28;20425;-70
2021/04/05 10:15:58;;;;;;;10.10;3.53;;;;;;;12.12;32.28;95700.69;4998252;28;20564;-70
2021/04/05 10:18:24;;;;;;;8.30;3.53;;;;;;;12.80;31.19;95696.28;5029772;28;20418;-70
2021/04/05 10:20:52;;;;;;;16.03;4.00;;;;;;;12.75;30.95;95696.91;5032729;28;20191;-70
2021/04/05 10:23:21;;;;;;;6.47;3.70;;;;;;;12.47;31.85;95702.34;5031397;28;20418;-69
2021/04/05 10:25:54;;;;;;;9.57;3.80;;;;;;;12.24;31.69;95705.34;5030644;28;20499;-70
2021/04/05 10:28:20;;;;;;;10.40;3.60;;;;;;;13.12;30.83;95691.19;5032949;28;20433;-69
2021/04/05 10:30:53;;;;;;;9.07;4.30;;;;;;;12.54;31.26;95695.28;5031858;28;20442;-69
2021/04/05 10:33:22;;;;;;;16.17;4.00;;;;;;;12.31;31.49;95681.72;5031527;28;20452;-70
2021/04/05 10:35:49;;;;;;;9.70;3.20;;;;;;;12.66;30.48;95674.47;5031815;28;20443;-69
2021/04/05 10:38:18;;;;;;;6.43;3.67;;;;;;;12.38;30.15;95664.94;5032101;28;20419;-69
2021/04/05 10:40:45;;;;;;;9.07;3.80;;;;;;;12.42;30.17;95671.44;5031503;28;20453;-70
2021/04/05 10:43:19;;;;;;;14.97;3.97;;;;;;;12.12;30.15;95674.41;4998878;28;20438;-70
2021/04/05 10:45:47;;;;;;;7.90;3.80;;;;;;;12.36;29.65;95677.47;5032120;28;20462;-70
2021/04/05 10:48:32;;;;;;;8.07;3.20;;;;;;;12.27;29.08;95668.19;5030537;28;20564;-69
2021/04/05 10:51:00;;;;;;;5.63;3.20;;;;;;;12.31;29.02;95658.91;5031497;28;20521;-69
2021/04/05 10:53:27;;;;;;;6.30;3.33;;;;;;;12.38;28.72;95688.59;5031456;28;20414;-69
2021/04/05 10:55:59;;;;;;;6.80;3.50;;;;;;;12.64;28.14;95665.97;5031842;28;20457;-70
2021/04/05 10:58:32;;;;;;;6.43;3.17;;;;;;;12.46;28.16;95657.91;5031635;28;20466;-71
2021/04/05 11:00:59;;;;;;;7.30;3.37;;;;;;;12.99;28.29;95660.47;5030726;28;20478;-69
2021/04/05 11:03:28;;;;;;;4.47;3.07;;;;;;;13.11;28.08;95658.03;5031589;28;20433;-70
2021/04/05 11:06:06;;;;;;;10.87;3.40;;;;;;;12.50;28.52;95661.72;5031766;28;20469;-68
2021/04/05 11:08:33;;;;;;;7.73;2.93;;;;;;;12.71;27.88;95640.50;5025201;28;20913;-71
2021/04/05 11:11:02;;;;;;;7.93;3.10;;;;;;;13.42;27.11;95642.59;5030301;28;20517;-70
2021/04/05 11:13:28;;;;;;;12.60;4.00;;;;;;;13.01;28.25;95631.34;5032163;28;20453;-69
2021/04/05 11:15:55;;;;;;;7.10;3.23;;;;;;;12.78;28.18;95644.94;5015693;28;20438;-68
2021/04/05 11:18:23;;;;;;;8.50;4.10;;;;;;;13.41;27.70;95636.53;5009842;28;20450;-70
2021/04/05 11:20:51;;;;;;;7.80;3.57;;;;;;;13.47;27.62;95645.41;5031149;28;20856;-69
2021/04/05 11:23:18;;;;;;;5.50;2.80;;;;;;;13.90;27.68;95634.25;5030279;28;20445;-70
2021/04/05 11:25:50;;;;;;;10.13;3.50;;;;;;;13.45;29.21;95627.19;5028375;28;20491;-70
2021/04/05 11:28:24;;;;;;;8.77;3.50;;;;;;;13.16;30.39;95644.25;5031273;28;20486;-69
2021/04/05 11:31:05;;;;;;;9.23;4.10;;;;;;;13.14;30.96;95641.03;5032418;28;20425;-69
2021/04/05 11:33:36;;;;;;;6.40;3.63;;;;;;;13.28;30.88;95633.91;5031622;28;20481;-70
2021/04/05 11:36:03;;;;;;;10.47;4.50;;;;;;;13.52;30.37;95642.94;5031315;28;20439;-71
2021/04/05 11:38:29;;;;;;;6.60;3.57;;;;;;;13.46;30.82;95638.53;5030860;28;20421;-70
2021/04/05 11:41:00;;;;;;;6.80;3.93;;;;;;;13.27;30.87;95640.97;5031246;28;20422;-70
2021/04/05 11:43:32;;;;;;;6.43;3.83;;;;;;;13.17;31.72;95630.09;5030766;28;20175;-71
2021/04/05 11:46:04;;;;;;;9.70;4.80;;;;;;;13.09;32.16;95620.59;5032055;28;20478;-70
2021/04/05 11:48:30;;;;;;;13.30;5.20;;;;;;;13.12;32.39;95633.34;5031354;28;20421;-69
2021/04/05 11:50:55;;;;;;;12.80;5.80;;;;;;;12.78;33.19;95637.03;5031751;28;20517;-70
2021/04/05 11:53:47;;;;;;;9.20;6.00;;;;;;;12.72;33.69;95628.97;5029938;28;20182;-69
2021/04/05 11:56:16;;;;;;;11.27;5.17;;;;;;;12.77;34.07;95630.19;5029434;28;20574;-70
2021/04/05 11:58:48;;;;;;;17.13;5.87;;;;;;;12.56;34.23;95624.13;5032253;28;20514;-69
2021/04/05 12:01:17;;;;;;;13.03;5.90;;;;;;;12.95;33.56;95634.78;5016233;28;20422;-69
2021/04/05 12:03:59;;;;;;;16.30;6.13;;;;;;;12.63;34.46;95639.91;5031037;28;20958;-71